createdAt,value
2017-07-18T00:00:11.019Z,100963.82
2017-07-18T00:02:38.464Z,100960.25
2017-07-18T00:05:05.886Z,100960.13
2017-07-18T00:07:33.639Z,100956.56
2017-07-18T00:10:01.074Z,100963.41
2017-07-18T00:12:28.479Z,100959.05
2017-07-18T00:14:56.411Z,100955.22
2017-07-18T00:17:23.827Z,100963.09
2017-07-18T00:19:51.246Z,100953.94
2017-07-18T00:22:19.003Z,100951.02
2017-07-18T00:24:46.432Z,100956.19
2017-07-18T00:27:13.850Z,100954.61
2017-07-18T00:29:41.622Z,100958.53
2017-07-18T00:32:09.038Z,100957.16
2017-07-18T00:34:36.500Z,100958.24
2017-07-18T00:37:05.243Z,100958.95
2017-07-18T00:39:32.649Z,100955.64
2017-07-18T00:42:00.072Z,100959.84
2017-07-18T00:44:27.538Z,100956.80
2017-07-18T00:46:54.958Z,100951.38
2017-07-18T00:49:22.390Z,100954.87
2017-07-18T00:51:49.842Z,100953.33
2017-07-18T00:54:18.365Z,100958.44
2017-07-18T00:56:45.791Z,100949.73
2017-07-18T00:59:13.436Z,100955.98
2017-07-18T01:01:40.863Z,100951.84
2017-07-18T01:04:08.317Z,100946.75
2017-07-18T01:06:36.107Z,100943.62
2017-07-18T01:09:03.539Z,100946.34
2017-07-18T01:11:30.959Z,100941.44
2017-07-18T01:13:58.678Z,100942.72
2017-07-18T01:16:26.114Z,100940.32
2017-07-18T01:18:53.523Z,100939.80
2017-07-18T01:21:21.246Z,100936.52
2017-07-18T01:23:48.675Z,100938.31
2017-07-18T01:26:16.083Z,100931.77
2017-07-18T01:28:43.571Z,100932.66
2017-07-18T01:31:10.991Z,100925.10
2017-07-18T01:33:38.414Z,100934.06
2017-07-18T01:36:05.890Z,100922.91
2017-07-18T01:38:33.319Z,100924.14
2017-07-18T01:41:00.747Z,100921.84
2017-07-18T01:43:28.330Z,100920.82
2017-07-18T01:45:55.750Z,100921.50
2017-07-18T01:48:23.168Z,100923.64
2017-07-18T01:50:50.644Z,100916.75
2017-07-18T01:53:18.070Z,100916.88
2017-07-18T01:55:45.499Z,100913.75
2017-07-18T01:58:13.130Z,100909.89
2017-07-18T02:00:40.547Z,100915.45
2017-07-18T02:03:07.971Z,100907.56
2017-07-18T02:05:35.415Z,100909.70
2017-07-18T02:08:02.827Z,100907.09
2017-07-18T02:10:30.248Z,100905.56
2017-07-18T02:12:57.690Z,100903.39
2017-07-18T02:15:25.118Z,100901.28
2017-07-18T02:17:52.563Z,100899.16
2017-07-18T02:20:20.246Z,100890.28
2017-07-18T02:22:47.656Z,100894.17
2017-07-18T02:25:15.076Z,100895.17
2017-07-18T02:27:42.998Z,100890.04
2017-07-18T02:32:37.418Z,100890.63
2017-07-18T02:35:05.007Z,100889.22
2017-07-18T02:37:32.428Z,100889.28
2017-07-18T02:39:59.851Z,100881.31
2017-07-18T02:42:27.443Z,100886.27
2017-07-18T02:44:54.860Z,100887.21
2017-07-18T02:47:22.280Z,100886.09
2017-07-18T02:49:49.805Z,100886.96
2017-07-18T02:52:17.220Z,100888.28
2017-07-18T02:54:44.646Z,100885.37
2017-07-18T02:57:12.217Z,100878.49
2017-07-18T02:59:39.668Z,100877.50
2017-07-18T03:02:07.088Z,100876.83
2017-07-18T03:04:34.514Z,100878.96
2017-07-18T03:07:01.936Z,100876.67
2017-07-18T03:09:29.355Z,100876.89
2017-07-18T03:11:56.798Z,100881.48
2017-07-18T03:14:24.212Z,100882.91
2017-07-18T03:16:51.635Z,100881.66
2017-07-18T03:19:19.105Z,100877.84
2017-07-18T03:21:46.536Z,100882.50
2017-07-18T03:24:25.997Z,100880.48
2017-07-18T03:26:53.428Z,100879.85
2017-07-18T03:29:20.859Z,100884.84
2017-07-18T03:31:48.388Z,100884.71
2017-07-18T03:34:15.807Z,100883.20
2017-07-18T03:36:43.231Z,100881.52
2017-07-18T03:39:10.771Z,100879.45
2017-07-18T03:41:38.186Z,100883.43
2017-07-18T03:44:05.595Z,100880.99
2017-07-18T03:46:33.027Z,100878.17
2017-07-18T03:49:00.443Z,100870.78
2017-07-18T03:51:27.862Z,100874.39
2017-07-18T03:53:55.308Z,100876.01
2017-07-18T03:56:22.736Z,100881.41
2017-07-18T03:58:50.143Z,100878.64
2017-07-18T04:01:17.669Z,100879.69
2017-07-18T04:03:45.078Z,100881.80
2017-07-18T04:06:14.492Z,100879.98
2017-07-18T04:08:41.925Z,100884.47
2017-07-18T04:11:09.340Z,100884.34
2017-07-18T04:13:36.746Z,100882.16
2017-07-18T04:16:04.216Z,100888.58
2017-07-18T04:18:31.639Z,100889.75
2017-07-18T04:20:59.054Z,100886.89
2017-07-18T04:23:26.483Z,100889.23
2017-07-18T04:25:53.887Z,100902.96
2017-07-18T04:28:21.303Z,100899.23
2017-07-18T04:30:48.978Z,100899.32
2017-07-18T04:33:16.386Z,100894.48
2017-07-18T04:35:43.794Z,100894.34
2017-07-18T04:38:11.583Z,100898.45
2017-07-18T04:40:38.983Z,100894.52
2017-07-18T04:43:06.399Z,100889.86
2017-07-18T04:45:33.836Z,100888.64
2017-07-18T04:48:01.242Z,100887.77
2017-07-18T04:50:28.659Z,100884.63
2017-07-18T04:52:56.094Z,100895.24
2017-07-18T04:55:23.502Z,100895.68
2017-07-18T04:57:50.936Z,100889.09
2017-07-18T05:00:18.427Z,100895.20
2017-07-18T05:02:45.838Z,100893.19
2017-07-18T05:05:13.250Z,100889.50
2017-07-18T05:07:41.043Z,100890.05
2017-07-18T05:10:08.454Z,100895.14
2017-07-18T05:12:35.871Z,100896.77
2017-07-18T05:15:03.336Z,100889.05
2017-07-18T05:17:30.747Z,100892.99
2017-07-18T05:19:58.159Z,100889.59
2017-07-18T05:22:25.935Z,100890.50
2017-07-18T05:24:53.346Z,100893.39
2017-07-18T05:27:20.750Z,100897.41
2017-07-18T05:29:48.285Z,100893.70
2017-07-18T05:32:15.709Z,100893.90
2017-07-18T05:34:43.114Z,100891.70
2017-07-18T05:37:10.959Z,100894.33
2017-07-18T05:39:38.377Z,100890.84
2017-07-18T05:42:05.794Z,100895.90
2017-07-18T05:44:33.374Z,100891.46
2017-07-18T05:47:00.783Z,100899.72
2017-07-18T05:49:28.222Z,100897.20
2017-07-18T05:51:56.143Z,100892.52
2017-07-18T05:54:23.557Z,100888.59
2017-07-18T05:56:50.988Z,100892.09
2017-07-18T05:59:18.554Z,100883.44
2017-07-18T06:01:45.967Z,100884.59
2017-07-18T06:04:13.427Z,100884.50
2017-07-18T06:06:41.419Z,100888.22
2017-07-18T06:09:08.875Z,100891.41
2017-07-18T06:11:36.319Z,100892.49
2017-07-18T06:14:04.087Z,100890.36
2017-07-18T06:16:31.533Z,100883.12
2017-07-18T06:18:58.962Z,100888.23
2017-07-18T06:21:26.838Z,100882.44
2017-07-18T06:23:54.250Z,100878.25
2017-07-18T06:26:21.673Z,100876.48
2017-07-18T06:28:49.208Z,100877.97
2017-07-18T06:31:16.660Z,100873.41
2017-07-18T06:33:44.170Z,100870.94
2017-07-18T06:36:11.756Z,100870.20
2017-07-18T06:38:39.169Z,100867.55
2017-07-18T06:41:06.587Z,100863.94
2017-07-18T06:43:34.154Z,100866.95
2017-07-18T06:46:01.570Z,100867.63
2017-07-18T06:48:28.988Z,100863.72
2017-07-18T06:50:56.713Z,100866.33
2017-07-18T06:53:24.141Z,100863.52
2017-07-18T06:55:51.558Z,100866.39
2017-07-18T06:58:19.043Z,100862.30
2017-07-18T07:00:46.443Z,100862.10
2017-07-18T07:03:13.847Z,100859.75
2017-07-18T07:05:41.275Z,100857.22
2017-07-18T07:08:08.678Z,100856.48
2017-07-18T07:10:36.099Z,100852.49
2017-07-18T07:13:04.407Z,100859.22
2017-07-18T07:15:31.831Z,100858.48
2017-07-18T07:17:59.242Z,100856.44
2017-07-18T07:20:27.025Z,100856.39
2017-07-18T07:22:54.479Z,100848.08
2017-07-18T07:25:23.207Z,100855.63
2017-07-18T07:27:50.620Z,100855.53
2017-07-18T07:30:18.028Z,100845.02
2017-07-18T07:32:45.438Z,100844.66
2017-07-18T07:35:12.901Z,100845.66
2017-07-18T07:37:40.315Z,100846.08
2017-07-18T07:40:07.728Z,100849.76
2017-07-18T07:42:35.604Z,100852.77
2017-07-18T07:45:03.034Z,100848.84
2017-07-18T07:47:31.227Z,100844.79
2017-07-18T07:49:59.107Z,100845.77
2017-07-18T07:52:26.526Z,100842.56
2017-07-18T07:54:53.942Z,100841.37
2017-07-18T07:57:21.384Z,100835.92
2017-07-18T07:59:48.811Z,100835.01
2017-07-18T08:02:16.218Z,100836.12
2017-07-18T08:04:43.762Z,100829.59
2017-07-18T08:07:11.223Z,100828.23
2017-07-18T08:09:38.632Z,100832.28
2017-07-18T08:12:06.233Z,100823.73
2017-07-18T08:14:33.658Z,100823.05
2017-07-18T08:17:01.062Z,100818.40
2017-07-18T08:19:28.491Z,100821.67
2017-07-18T08:21:56.874Z,100812.11
2017-07-18T08:24:24.326Z,100815.11
2017-07-18T08:26:51.939Z,100816.16
2017-07-18T08:29:19.403Z,100810.95
2017-07-18T08:31:46.814Z,100809.33
2017-07-18T08:34:14.442Z,100801.43
2017-07-18T08:36:41.845Z,100806.48
2017-07-18T08:39:09.263Z,100804.95
2017-07-18T08:41:36.794Z,100793.88
2017-07-18T08:44:04.202Z,100792.32
2017-07-18T08:46:31.610Z,100792.84
2017-07-18T08:48:59.063Z,100797.78
2017-07-18T08:51:26.498Z,100793.05
2017-07-18T08:53:53.911Z,100795.58
2017-07-18T08:56:21.341Z,100789.23
2017-07-18T08:58:48.759Z,100802.05
2017-07-18T09:01:16.167Z,100800.25
2017-07-18T09:03:43.714Z,100803.44
2017-07-18T09:06:11.123Z,100804.30
2017-07-18T09:08:38.530Z,100800.10
2017-07-18T09:11:06.103Z,100793.25
2017-07-18T09:13:34.638Z,100791.97
2017-07-18T09:16:02.054Z,100790.32
2017-07-18T09:18:29.895Z,100788.45
2017-07-18T09:20:57.310Z,100781.81
2017-07-18T09:23:24.710Z,100779.50
2017-07-18T09:25:52.238Z,100773.55
2017-07-18T09:28:19.655Z,100773.66
2017-07-18T09:30:47.067Z,100772.70
2017-07-18T09:33:14.634Z,100775.36
2017-07-18T09:35:42.043Z,100769.75
2017-07-18T09:38:09.454Z,100772.44
2017-07-18T09:40:37.053Z,100765.70
2017-07-18T09:43:04.462Z,100771.28
2017-07-18T09:45:31.878Z,100765.20
2017-07-18T09:47:59.585Z,100763.70
2017-07-18T09:50:27.008Z,100758.81
2017-07-18T09:52:54.417Z,100754.20
2017-07-18T09:55:22.171Z,100755.55
2017-07-18T09:57:49.574Z,100757.11
2017-07-18T10:00:16.982Z,100764.74
2017-07-18T10:02:44.430Z,100753.95
2017-07-18T10:05:11.837Z,100754.27
2017-07-18T10:07:39.242Z,100746.02
2017-07-18T10:10:06.816Z,100749.13
2017-07-18T10:12:34.223Z,100746.89
2017-07-18T10:15:01.630Z,100751.73
2017-07-18T10:17:29.156Z,100746.48
2017-07-18T10:19:56.563Z,100743.19
2017-07-18T10:22:23.966Z,100740.59
2017-07-18T10:24:51.855Z,100744.48
2017-07-18T10:27:19.268Z,100740.14
2017-07-18T10:29:46.679Z,100743.62
2017-07-18T10:32:14.104Z,100738.27
2017-07-18T10:34:41.514Z,100730.20
2017-07-18T10:37:08.919Z,100737.97
2017-07-18T10:39:36.351Z,100733.14
2017-07-18T10:42:03.766Z,100729.88
2017-07-18T10:44:31.169Z,100729.14
2017-07-18T10:46:58.603Z,100719.89
2017-07-18T10:49:26.016Z,100727.02
2017-07-18T10:51:53.421Z,100721.51
2017-07-18T10:54:20.842Z,100711.82
2017-07-18T10:56:48.263Z,100709.92
2017-07-18T10:59:15.695Z,100708.33
2017-07-18T11:01:43.111Z,100701.14
2017-07-18T11:04:10.523Z,100701.24
2017-07-18T11:06:37.930Z,100689.25
2017-07-18T11:09:05.678Z,100684.81
2017-07-18T11:11:33.102Z,100689.81
2017-07-18T11:14:00.511Z,100690.51
2017-07-18T11:16:27.959Z,100680.39
2017-07-18T11:18:55.382Z,100674.66
2017-07-18T11:21:22.831Z,100682.66
2017-07-18T11:23:50.345Z,100673.53
2017-07-18T11:26:17.762Z,100666.28
2017-07-18T11:28:45.198Z,100671.20
2017-07-18T11:31:12.830Z,100665.87
2017-07-18T11:33:40.262Z,100672.38
2017-07-18T11:36:07.679Z,100655.97
2017-07-18T11:38:44.802Z,100658.16
2017-07-18T11:41:12.219Z,100647.36
2017-07-18T11:43:39.623Z,100644.34
2017-07-18T11:46:07.428Z,100650.91
2017-07-18T11:48:34.843Z,100642.57
2017-07-18T11:51:02.270Z,100642.55
2017-07-18T11:53:30.676Z,100642.33
2017-07-18T11:55:58.094Z,100636.75
2017-07-18T11:58:25.523Z,100637.36
2017-07-18T12:00:53.006Z,100632.08
2017-07-18T12:03:20.426Z,100629.35
2017-07-18T12:05:47.852Z,100628.98
2017-07-18T12:08:15.505Z,100626.95
2017-07-18T12:10:42.956Z,100620.46
2017-07-18T12:13:10.391Z,100619.30
2017-07-18T12:15:37.889Z,100609.09
2017-07-18T12:18:05.342Z,100612.67
2017-07-18T12:20:32.742Z,100610.43
2017-07-18T12:23:00.327Z,100616.36
2017-07-18T12:25:27.751Z,100602.98
2017-07-18T12:27:55.156Z,100603.24
2017-07-18T12:30:22.592Z,100596.39
2017-07-18T12:32:50.022Z,100592.23
2017-07-18T12:35:17.436Z,100591.30
2017-07-18T12:37:44.899Z,100585.55
2017-07-18T12:40:12.338Z,100581.27
2017-07-18T12:42:39.770Z,100577.94
2017-07-18T12:45:07.328Z,100582.13
2017-07-18T12:47:34.745Z,100574.30
2017-07-18T12:50:02.217Z,100567.89
2017-07-18T12:52:29.771Z,100568.22
2017-07-18T12:54:57.217Z,100564.34
2017-07-18T12:57:24.631Z,100559.78
2017-07-18T12:59:52.107Z,100550.09
2017-07-18T13:02:19.529Z,100535.67
2017-07-18T13:04:46.942Z,100545.46
2017-07-18T13:07:14.525Z,100547.81
2017-07-18T13:09:41.950Z,100540.34
2017-07-18T13:12:09.361Z,100532.13
2017-07-18T13:14:36.915Z,100534.74
2017-07-18T13:17:04.559Z,100536.94
2017-07-18T13:19:31.978Z,100533.99
2017-07-18T13:21:59.474Z,100522.73
2017-07-18T13:24:26.907Z,100525.16
2017-07-18T13:26:54.319Z,100519.86
2017-07-18T13:29:22.164Z,100529.45
2017-07-18T13:31:49.583Z,100512.89
2017-07-18T13:34:16.998Z,100505.89
2017-07-18T13:36:44.802Z,100508.08
2017-07-18T13:39:12.224Z,100513.72
2017-07-18T13:41:39.641Z,100507.95
2017-07-18T13:44:07.115Z,100500.91
2017-07-18T13:46:34.540Z,100499.98
2017-07-18T13:49:01.962Z,100494.27
2017-07-18T13:51:29.559Z,100494.06
2017-07-18T13:53:57.322Z,100498.52
2017-07-18T13:56:24.762Z,100494.78
2017-07-18T13:58:52.258Z,100492.76
2017-07-18T14:01:19.724Z,100487.93
2017-07-18T14:03:47.183Z,100490.12
2017-07-18T14:06:15.790Z,100481.59
2017-07-18T14:08:44.003Z,100481.25
2017-07-18T14:11:12.314Z,100480.75
2017-07-18T14:13:39.742Z,100474.67
2017-07-18T14:16:07.170Z,100474.23
2017-07-18T14:18:34.582Z,100472.56
2017-07-18T14:21:02.063Z,100467.48
2017-07-18T14:23:29.490Z,100455.27
2017-07-18T14:25:56.906Z,100453.38
2017-07-18T14:28:24.375Z,100453.38
2017-07-18T14:30:51.804Z,100449.19
2017-07-18T14:33:19.722Z,100444.34
2017-07-18T14:35:47.255Z,100445.61
2017-07-18T14:38:14.664Z,100443.38
2017-07-18T14:40:42.110Z,100442.14
2017-07-18T14:43:09.548Z,100438.73
2017-07-18T14:45:36.953Z,100440.64
2017-07-18T14:48:04.386Z,100437.30
2017-07-18T14:50:32.170Z,100433.86
2017-07-18T14:52:59.681Z,100432.61
2017-07-18T14:55:27.111Z,100427.77
2017-07-18T14:57:54.642Z,100418.11
2017-07-18T15:00:22.074Z,100414.45
2017-07-18T15:02:49.489Z,100410.30
2017-07-18T15:05:16.987Z,100407.61
2017-07-18T15:07:44.446Z,100408.30
2017-07-18T15:10:11.855Z,100401.66
2017-07-18T15:12:39.554Z,100402.41
2017-07-18T15:15:07.004Z,100397.20
2017-07-18T15:17:34.426Z,100392.00
2017-07-18T15:20:01.988Z,100387.23
2017-07-18T15:22:29.394Z,100388.66
2017-07-18T15:24:56.810Z,100387.02
2017-07-18T15:27:24.543Z,100381.51
2017-07-18T15:29:52.736Z,100374.47
2017-07-18T15:32:20.150Z,100365.31
2017-07-18T15:34:47.584Z,100367.67
2017-07-18T15:37:15.007Z,100365.14
2017-07-18T15:39:42.430Z,100361.60
2017-07-18T15:42:10.722Z,100359.73
2017-07-18T15:44:38.131Z,100359.09
2017-07-18T15:47:05.554Z,100348.73
2017-07-18T15:49:33.470Z,100347.92
2017-07-18T15:52:00.870Z,100345.66
2017-07-18T15:54:28.282Z,100343.30
2017-07-18T15:56:55.873Z,100345.55
2017-07-18T15:59:23.290Z,100336.13
2017-07-18T16:01:50.718Z,100338.19
2017-07-18T16:04:18.390Z,100328.21
2017-07-18T16:06:45.868Z,100328.67
2017-07-18T16:09:13.274Z,100328.25
2017-07-18T16:11:40.726Z,100322.03
2017-07-18T16:14:08.164Z,100324.13
2017-07-18T16:16:35.562Z,100326.52
2017-07-18T16:19:03.335Z,100325.63
2017-07-18T16:21:30.762Z,100322.50
2017-07-18T16:23:58.214Z,100318.81
2017-07-18T16:26:25.730Z,100316.67
2017-07-18T16:28:53.141Z,100312.67
2017-07-18T16:31:20.550Z,100309.00
2017-07-18T16:33:47.986Z,100310.88
2017-07-18T16:36:15.399Z,100304.01
2017-07-18T16:38:42.812Z,100301.63
2017-07-18T16:41:10.291Z,100305.02
2017-07-18T16:43:37.694Z,100302.59
2017-07-18T16:46:05.103Z,100309.51
2017-07-18T16:48:32.676Z,100304.18
2017-07-18T16:51:00.078Z,100301.55
2017-07-18T16:53:27.498Z,100305.28
2017-07-18T16:55:55.026Z,100304.98
2017-07-18T16:58:22.445Z,100305.63
2017-07-18T17:00:49.866Z,100304.73
2017-07-18T17:03:17.432Z,100302.41
2017-07-18T17:05:44.840Z,100308.47
2017-07-18T17:08:12.259Z,100305.67
2017-07-18T17:10:39.855Z,100305.98
2017-07-18T17:13:07.278Z,100308.45
2017-07-18T17:15:34.678Z,100312.13
2017-07-18T17:18:02.138Z,100308.83
2017-07-18T17:20:29.536Z,100308.50
2017-07-18T17:22:56.947Z,100312.27
2017-07-18T17:25:24.545Z,100310.42
2017-07-18T17:27:51.961Z,100307.46
2017-07-18T17:30:19.368Z,100306.13
2017-07-18T17:32:46.822Z,100307.62
2017-07-18T17:35:18.918Z,100307.03
2017-07-18T17:37:46.330Z,100303.81
2017-07-18T17:40:13.793Z,100308.67
2017-07-18T17:42:41.202Z,100309.30
2017-07-18T17:45:08.645Z,100297.98
2017-07-18T17:47:36.066Z,100297.73
2017-07-18T17:50:03.483Z,100295.70
2017-07-18T17:52:31.004Z,100307.46
2017-07-18T17:54:58.418Z,100303.37
2017-07-18T17:57:25.835Z,100303.55
2017-07-18T17:59:53.272Z,100302.50
2017-07-18T18:02:21.729Z,100307.20
2017-07-18T18:04:49.138Z,100305.13
2017-07-18T18:07:17.037Z,100293.98
2017-07-18T18:09:45.146Z,100297.85
2017-07-18T18:12:13.427Z,100297.17
2017-07-18T18:14:41.206Z,100297.34
2017-07-18T18:17:08.619Z,100296.81
2017-07-18T18:19:36.037Z,100296.75
2017-07-18T18:22:03.806Z,100299.05
2017-07-18T18:24:31.222Z,100294.94
2017-07-18T18:26:58.630Z,100291.48
2017-07-18T18:29:26.062Z,100294.17
2017-07-18T18:31:53.489Z,100289.30
2017-07-18T18:34:20.910Z,100288.80
2017-07-18T18:36:48.563Z,100289.37
2017-07-18T18:39:15.985Z,100286.64
2017-07-18T18:41:43.399Z,100284.93
2017-07-18T18:44:10.983Z,100280.19
2017-07-18T18:46:38.402Z,100281.83
2017-07-18T18:49:05.973Z,100281.45
2017-07-18T18:51:33.461Z,100278.29
2017-07-18T18:54:00.937Z,100277.41
2017-07-18T18:56:28.352Z,100271.40
2017-07-18T18:58:55.790Z,100269.91
2017-07-18T19:01:23.224Z,100275.22
2017-07-18T19:03:50.635Z,100275.77
2017-07-18T19:06:18.204Z,100278.33
2017-07-18T19:08:45.611Z,100268.25
2017-07-18T19:11:13.024Z,100278.89
2017-07-18T19:13:40.499Z,100278.79
2017-07-18T19:16:07.914Z,100272.22
2017-07-18T19:18:35.330Z,100273.69
2017-07-18T19:21:02.935Z,100272.41
2017-07-18T19:23:30.348Z,100270.95
2017-07-18T19:26:04.150Z,100261.41
2017-07-18T19:28:31.572Z,100267.00
2017-07-18T19:30:58.995Z,100265.21
2017-07-18T19:33:26.591Z,100263.63
2017-07-18T19:35:54.015Z,100256.48
2017-07-18T19:38:21.440Z,100258.17
2017-07-18T19:40:48.874Z,100256.00
2017-07-18T19:43:16.394Z,100259.71
2017-07-18T19:45:43.933Z,100258.53
2017-07-18T19:48:11.539Z,100259.84
2017-07-18T19:50:38.974Z,100257.07
2017-07-18T19:53:06.391Z,100253.35
2017-07-18T19:55:34.086Z,100267.22
2017-07-18T19:58:01.498Z,100261.50
2017-07-18T20:00:28.923Z,100256.59
2017-07-18T20:02:56.456Z,100250.69
2017-07-18T20:05:23.870Z,100254.74
2017-07-18T20:07:51.283Z,100248.78
2017-07-18T20:10:18.886Z,100254.70
2017-07-18T20:12:46.306Z,100249.81
2017-07-18T20:15:13.726Z,100256.84
2017-07-18T20:17:41.650Z,100252.34
2017-07-18T20:20:09.073Z,100253.45
2017-07-18T20:22:36.487Z,100246.45
2017-07-18T20:25:04.252Z,100248.05
2017-07-18T20:27:31.680Z,100249.12
2017-07-18T20:29:59.094Z,100241.14
2017-07-18T20:32:26.558Z,100249.20
2017-07-18T20:34:53.978Z,100236.87
2017-07-18T20:37:21.394Z,100243.58
2017-07-18T20:39:48.943Z,100234.50
2017-07-18T20:42:16.364Z,100236.60
2017-07-18T20:44:43.841Z,100231.72
2017-07-18T20:47:11.552Z,100236.75
2017-07-18T20:49:38.974Z,100223.48
2017-07-18T20:52:06.390Z,100226.86
2017-07-18T20:54:34.335Z,100225.80
2017-07-18T20:57:01.750Z,100223.85
2017-07-18T20:59:29.171Z,100226.28
2017-07-18T21:01:56.622Z,100227.70
2017-07-18T21:04:24.042Z,100233.02
2017-07-18T21:06:51.457Z,100222.48
2017-07-18T21:09:19.298Z,100219.85
2017-07-18T21:11:46.719Z,100218.11
2017-07-18T21:14:14.136Z,100215.39
2017-07-18T21:16:41.567Z,100209.98
2017-07-18T21:19:08.982Z,100208.55
2017-07-18T21:21:36.398Z,100201.43
2017-07-18T21:24:04.026Z,100209.98
2017-07-18T21:26:31.447Z,100205.70
2017-07-18T21:28:58.862Z,100205.74
2017-07-18T21:31:26.295Z,100200.73
2017-07-18T21:33:53.710Z,100199.66
2017-07-18T21:36:21.126Z,100198.14
2017-07-18T21:38:48.659Z,100198.14
2017-07-18T21:41:16.082Z,100195.45
2017-07-18T21:43:43.499Z,100196.08
2017-07-18T21:46:10.967Z,100196.20
2017-07-18T21:48:38.378Z,100191.23
2017-07-18T21:51:05.794Z,100190.34
2017-07-18T21:53:33.253Z,100189.87
2017-07-18T21:56:00.650Z,100195.94
2017-07-18T21:58:28.066Z,100194.20
2017-07-18T22:00:55.510Z,100180.97
2017-07-18T22:03:22.923Z,100178.75
2017-07-18T22:05:50.365Z,100184.61
2017-07-18T22:08:17.882Z,100188.05
2017-07-18T22:10:45.299Z,100180.30
2017-07-18T22:13:12.713Z,100178.81
2017-07-18T22:15:40.295Z,100186.22
2017-07-18T22:18:07.715Z,100189.27
2017-07-18T22:20:35.138Z,100187.83
2017-07-18T22:23:02.715Z,100187.02
2017-07-18T22:25:30.135Z,100188.45
2017-07-18T22:27:57.550Z,100187.02
2017-07-18T22:30:24.982Z,100175.41
2017-07-18T22:32:52.400Z,100177.94
2017-07-18T22:35:19.814Z,100176.26
2017-07-18T22:37:47.745Z,100171.12
2017-07-18T22:40:15.165Z,100164.64
2017-07-18T22:42:42.583Z,100161.31
2017-07-18T22:45:10.162Z,100173.13
2017-07-18T22:47:37.579Z,100170.97
2017-07-18T22:50:04.994Z,100172.42
2017-07-18T22:52:32.666Z,100167.98
2017-07-18T22:55:00.079Z,100162.95
2017-07-18T22:57:27.493Z,100158.94
2017-07-18T22:59:55.273Z,100160.62
2017-07-18T23:02:22.695Z,100165.75
2017-07-18T23:04:50.112Z,100160.67
2017-07-18T23:07:17.851Z,100159.54
2017-07-18T23:09:45.267Z,100158.87
2017-07-18T23:12:12.681Z,100156.00
2017-07-18T23:14:40.295Z,100152.06
2017-07-18T23:17:07.713Z,100154.95
2017-07-18T23:19:35.134Z,100150.89
2017-07-18T23:22:02.862Z,100146.38
2017-07-18T23:24:30.279Z,100154.70
2017-07-18T23:26:57.694Z,100155.11
2017-07-18T23:29:25.378Z,100146.88
2017-07-18T23:31:52.795Z,100143.90
2017-07-18T23:34:20.208Z,100150.08
2017-07-18T23:36:47.954Z,100144.22
2017-07-18T23:39:15.370Z,100142.70
2017-07-18T23:41:42.789Z,100142.01
2017-07-18T23:44:10.534Z,100140.33
2017-07-18T23:46:37.954Z,100135.36
2017-07-18T23:49:05.366Z,100130.36
2017-07-18T23:51:32.910Z,100133.17
2017-07-18T23:54:00.326Z,100132.51
2017-07-18T23:56:27.738Z,100133.59
2017-07-18T23:58:55.207Z,100126.05
